Time;durP1;ratioP1;P1;durP2;ratioP2;P2;SDS_P1;SDS_P2;PMS_P1;PMS_P2;Temp;Humidity;BMP_temperature;BMP_pressure;BME280_temperature;BME280_humidity;BME280_pressure;Samples;Min_cycle;Max_cycle;Signal;HPM_P1;HPM_P2
2021/05/05 00:01:17;;;;;;;6.78;0.88;;;;;;;;;;6021745;23;20029;-54
2021/05/05 00:03:44;;;;;;;3.97;0.77;;;;;;;;;;5997415;23;20029;-55
2021/05/05 00:06:12;;;;;;;10.88;0.80;;;;;;;;;;6019547;23;20037;-51
2021/05/05 00:08:38;;;;;;;6.55;1.10;;;;;;;;;;5997083;23;20021;-57
2021/05/05 00:11:04;;;;;;;9.00;0.70;;;;;;;;;;5998006;23;20104;-56
2021/05/05 00:13:31;;;;;;;5.07;0.90;;;;;;;;;;6023360;23;20036;-57
2021/05/05 00:15:57;;;;;;;1.90;0.70;;;;;;;;;;6051618;23;20028;-53
2021/05/05 00:18:23;;;;;;;3.25;0.75;;;;;;;;;;5996218;23;20038;-55
2021/05/05 00:20:49;;;;;;;5.57;1.00;;;;;;;;;;5997008;23;20037;-56
2021/05/05 00:23:15;;;;;;;4.45;0.77;;;;;;;;;;6017418;23;20037;-51
2021/05/05 00:25:43;;;;;;;4.45;0.70;;;;;;;;;;6024317;23;20140;-52
2021/05/05 00:28:09;;;;;;;7.93;1.00;;;;;;;;;;6002261;23;20033;-48
2021/05/05 00:30:36;;;;;;;6.43;0.82;;;;;;;;;;5998363;23;20052;-53
2021/05/05 00:33:02;;;;;;;3.95;0.70;;;;;;;;;;6012591;23;20032;-48
2021/05/05 00:35:28;;;;;;;3.00;0.82;;;;;;;;;;6027103;23;20083;-54
2021/05/05 00:37:54;;;;;;;6.63;1.02;;;;;;;;;;6009555;23;20030;-50
2021/05/05 00:40:20;;;;;;;4.05;0.88;;;;;;;;;;5998399;23;20040;-51
2021/05/05 00:42:46;;;;;;;1.27;0.68;;;;;;;;;;6020652;23;20057;-52
2021/05/05 00:45:13;;;;;;;5.03;0.82;;;;;;;;;;5996709;23;20136;-51
2021/05/05 00:47:41;;;;;;;7.13;1.23;;;;;;;;;;6001197;23;20037;-52
2021/05/05 00:50:08;;;;;;;5.53;1.10;;;;;;;;;;6025762;23;20033;-58
2021/05/05 00:52:34;;;;;;;6.38;1.33;;;;;;;;;;6047111;23;20037;-54
2021/05/05 00:55:00;;;;;;;5.85;0.85;;;;;;;;;;6020814;23;20040;-47
2021/05/05 00:57:27;;;;;;;5.10;1.00;;;;;;;;;;6024806;23;20021;-48
2021/05/05 00:59:53;;;;;;;5.82;1.25;;;;;;;;;;6000155;23;20026;-52
2021/05/05 01:02:19;;;;;;;6.00;1.23;;;;;;;;;;6021479;23;20036;-52
2021/05/05 01:04:47;;;;;;;7.90;1.23;;;;;;;;;;6020426;23;20048;-48
2021/05/05 01:07:13;;;;;;;3.60;1.17;;;;;;;;;;6028007;23;20044;-47
2021/05/05 01:09:43;;;;;;;2.70;1.00;;;;;;;;;;6022787;23;20025;-53
2021/05/05 01:12:09;;;;;;;4.85;0.90;;;;;;;;;;6026518;23;20033;-49
2021/05/05 01:14:36;;;;;;;2.17;0.88;;;;;;;;;;6008935;23;20032;-48
2021/05/05 01:17:02;;;;;;;7.13;1.13;;;;;;;;;;6021912;23;20041;-49
2021/05/05 01:19:28;;;;;;;3.22;0.90;;;;;;;;;;6010280;23;20093;-49
2021/05/05 01:21:55;;;;;;;1.50;0.80;;;;;;;;;;6027825;23;20036;-52
2021/05/05 01:24:20;;;;;;;1.15;0.70;;;;;;;;;;6023865;23;20085;-52
2021/05/05 01:26:47;;;;;;;3.83;0.82;;;;;;;;;;6025852;23;20033;-51
2021/05/05 01:29:12;;;;;;;5.28;0.80;;;;;;;;;;6016724;23;20029;-52
2021/05/05 01:31:38;;;;;;;2.92;0.70;;;;;;;;;;5996770;23;20028;-47
2021/05/05 01:34:04;;;;;;;7.13;1.10;;;;;;;;;;6019894;23;20037;-53
2021/05/05 01:36:32;;;;;;;4.82;0.70;;;;;;;;;;5997920;23;20037;-57
2021/05/05 01:38:59;;;;;;;5.57;0.75;;;;;;;;;;5996245;23;20029;-51
2021/05/05 01:41:25;;;;;;;4.85;0.95;;;;;;;;;;6025365;23;20037;-49
2021/05/05 01:43:50;;;;;;;4.45;0.70;;;;;;;;;;6024711;23;20036;-54
2021/05/05 01:46:21;;;;;;;4.47;1.00;;;;;;;;;;5999190;23;20074;-52
2021/05/05 01:48:47;;;;;;;5.38;0.90;;;;;;;;;;5996508;23;20038;-51
2021/05/05 01:51:13;;;;;;;5.88;1.08;;;;;;;;;;6013865;23;20049;-49
2021/05/05 01:53:39;;;;;;;6.10;0.80;;;;;;;;;;6017344;23;20037;-52
2021/05/05 01:56:07;;;;;;;6.20;1.10;;;;;;;;;;6034984;23;20118;-53
2021/05/05 01:58:33;;;;;;;5.95;1.00;;;;;;;;;;6023923;23;20025;-49
2021/05/05 02:01:00;;;;;;;8.90;0.93;;;;;;;;;;6012737;23;20168;-47
2021/05/05 02:03:25;;;;;;;5.65;0.90;;;;;;;;;;5998064;23;20013;-50
2021/05/05 02:05:52;;;;;;;8.40;1.08;;;;;;;;;;5996188;23;20044;-48
2021/05/05 02:08:18;;;;;;;10.18;1.05;;;;;;;;;;5997373;23;20041;-50
2021/05/05 02:10:45;;;;;;;2.47;0.88;;;;;;;;;;6023567;23;20049;-48
2021/05/05 02:13:12;;;;;;;3.67;0.90;;;;;;;;;;6026010;23;20057;-51
2021/05/05 02:15:38;;;;;;;4.68;0.88;;;;;;;;;;6052589;23;20052;-49
2021/05/05 02:18:06;;;;;;;6.65;0.98;;;;;;;;;;5998306;23;20038;-53
2021/05/05 02:20:32;;;;;;;4.38;1.20;;;;;;;;;;5995957;23;20052;-48
2021/05/05 02:22:58;;;;;;;7.88;1.08;;;;;;;;;;5993616;23;20038;-49
2021/05/05 02:25:25;;;;;;;5.28;1.00;;;;;;;;;;6005337;23;20056;-49
2021/05/05 02:27:51;;;;;;;4.13;0.90;;;;;;;;;;6000362;23;20037;-51
2021/05/05 02:30:18;;;;;;;6.90;0.95;;;;;;;;;;6024146;23;20034;-50
2021/05/05 02:32:46;;;;;;;7.70;1.40;;;;;;;;;;6011351;23;20032;-50
2021/05/05 02:35:12;;;;;;;8.48;1.23;;;;;;;;;;6026732;23;20100;-49
2021/05/05 02:37:38;;;;;;;6.78;1.20;;;;;;;;;;6035378;23;20065;-48
2021/05/05 02:40:06;;;;;;;7.15;1.05;;;;;;;;;;5995696;23;20029;-50
2021/05/05 02:42:32;;;;;;;9.43;1.30;;;;;;;;;;5994463;23;20047;-50
2021/05/05 02:44:59;;;;;;;8.90;1.10;;;;;;;;;;5997676;23;20058;-51
2021/05/05 02:47:26;;;;;;;6.63;1.00;;;;;;;;;;6002782;23;20060;-49
2021/05/05 02:49:52;;;;;;;4.88;1.20;;;;;;;;;;6053637;23;20051;-48
2021/05/05 02:52:18;;;;;;;3.97;1.20;;;;;;;;;;6022953;23;20048;-50
2021/05/05 02:54:47;;;;;;;9.48;1.30;;;;;;;;;;6052230;23;20090;-54
2021/05/05 02:57:13;;;;;;;6.53;1.13;;;;;;;;;;6026721;23;20025;-49
2021/05/05 02:59:39;;;;;;;6.10;1.05;;;;;;;;;;6024909;23;20037;-52
2021/05/05 03:02:05;;;;;;;2.97;0.98;;;;;;;;;;6051989;23;20135;-49
2021/05/05 03:04:32;;;;;;;6.53;1.10;;;;;;;;;;5997867;23;20052;-54
2021/05/05 03:06:58;;;;;;;4.65;1.23;;;;;;;;;;5997295;23;20029;-50
2021/05/05 03:09:25;;;;;;;7.10;0.93;;;;;;;;;;6019033;23;20041;-53
2021/05/05 03:11:51;;;;;;;9.20;1.38;;;;;;;;;;6019981;23;20033;-53
2021/05/05 03:14:17;;;;;;;5.78;0.98;;;;;;;;;;5995321;23;20034;-54
2021/05/05 03:16:43;;;;;;;8.40;1.23;;;;;;;;;;5997133;23;20054;-49
2021/05/05 03:19:09;;;;;;;5.00;1.00;;;;;;;;;;6020093;23;20034;-50
2021/05/05 03:21:38;;;;;;;7.05;1.27;;;;;;;;;;5997165;23;20036;-52
2021/05/05 03:24:04;;;;;;;7.43;1.52;;;;;;;;;;5993232;23;20123;-48
2021/05/05 03:26:30;;;;;;;5.53;1.20;;;;;;;;;;6018608;23;20036;-50
2021/05/05 03:28:56;;;;;;;4.50;1.42;;;;;;;;;;6016407;23;20044;-51
2021/05/05 03:31:22;;;;;;;9.95;1.30;;;;;;;;;;6023079;23;20029;-51
2021/05/05 03:33:48;;;;;;;7.93;1.40;;;;;;;;;;5997325;23;20085;-48
2021/05/05 03:36:14;;;;;;;6.20;1.35;;;;;;;;;;5997595;23;20040;-51
2021/05/05 03:38:41;;;;;;;6.95;1.50;;;;;;;;;;5996070;23;20056;-47
2021/05/05 03:41:07;;;;;;;5.65;1.50;;;;;;;;;;5994430;23;20030;-53
2021/05/05 03:43:33;;;;;;;9.68;1.42;;;;;;;;;;6020664;23;20066;-53
2021/05/05 03:45:59;;;;;;;6.72;1.55;;;;;;;;;;5996554;23;20047;-51
2021/05/05 03:48:25;;;;;;;5.40;1.52;;;;;;;;;;5998630;23;20036;-48
2021/05/05 03:50:52;;;;;;;9.65;1.35;;;;;;;;;;5994765;23;20041;-49
2021/05/05 03:53:18;;;;;;;10.82;1.25;;;;;;;;;;6023585;23;20049;-49
2021/05/05 03:55:45;;;;;;;6.03;1.52;;;;;;;;;;6032030;23;20044;-49
2021/05/05 03:58:11;;;;;;;8.52;1.42;;;;;;;;;;5997356;23;20042;-49
2021/05/05 04:00:37;;;;;;;11.30;1.60;;;;;;;;;;6028621;23;20064;-50
2021/05/05 04:03:03;;;;;;;7.82;1.50;;;;;;;;;;6024253;23;20025;-49
2021/05/05 04:05:30;;;;;;;6.28;1.35;;;;;;;;;;6049057;23;20028;-49
2021/05/05 04:07:56;;;;;;;10.93;1.42;;;;;;;;;;6051783;23;20031;-47
2021/05/05 04:10:24;;;;;;;9.18;1.52;;;;;;;;;;6020249;23;20041;-48
2021/05/05 04:12:51;;;;;;;9.93;1.65;;;;;;;;;;5987969;23;20057;-50
2021/05/05 04:15:18;;;;;;;6.60;1.17;;;;;;;;;;5995821;23;20037;-49
2021/05/05 04:17:44;;;;;;;6.72;1.50;;;;;;;;;;6026339;23;20031;-47
2021/05/05 04:20:10;;;;;;;6.32;1.27;;;;;;;;;;6054468;23;20032;-47
2021/05/05 04:22:37;;;;;;;9.80;1.27;;;;;;;;;;6023559;23;20032;-49
2021/05/05 04:25:03;;;;;;;6.35;1.10;;;;;;;;;;6027349;23;20118;-50
2021/05/05 04:27:29;;;;;;;4.55;1.25;;;;;;;;;;6023054;23;20029;-51
2021/05/05 04:29:56;;;;;;;6.10;1.15;;;;;;;;;;6025917;23;20033;-50
2021/05/05 04:32:22;;;;;;;7.90;1.02;;;;;;;;;;6023801;23;20036;-51
2021/05/05 04:34:48;;;;;;;10.93;1.70;;;;;;;;;;6024170;23;20170;-50
2021/05/05 04:37:14;;;;;;;10.52;1.45;;;;;;;;;;6036441;23;20025;-54
2021/05/05 04:39:40;;;;;;;10.05;1.75;;;;;;;;;;5997937;23;20149;-55
2021/05/05 04:42:07;;;;;;;5.13;1.73;;;;;;;;;;6004940;23;20028;-51
2021/05/05 04:44:33;;;;;;;6.55;1.35;;;;;;;;;;6024193;23;20029;-54
2021/05/05 04:47:00;;;;;;;4.97;1.10;;;;;;;;;;6021472;23;20037;-52
2021/05/05 04:49:26;;;;;;;8.38;1.58;;;;;;;;;;6026311;23;20040;-51
2021/05/05 04:51:52;;;;;;;6.13;1.25;;;;;;;;;;6022444;23;20036;-51
2021/05/05 04:54:18;;;;;;;8.98;1.10;;;;;;;;;;6009956;23;20036;-52
2021/05/05 04:56:44;;;;;;;5.80;1.10;;;;;;;;;;6026049;23;20021;-53
2021/05/05 04:59:10;;;;;;;5.03;1.30;;;;;;;;;;6046422;23;20028;-49
2021/05/05 05:01:36;;;;;;;6.18;1.30;;;;;;;;;;6049324;23;20106;-52
2021/05/05 05:04:03;;;;;;;9.13;1.70;;;;;;;;;;6028336;23;20041;-48
2021/05/05 05:06:29;;;;;;;8.43;1.70;;;;;;;;;;5996309;23;20033;-47
2021/05/05 05:08:55;;;;;;;10.63;2.90;;;;;;;;;;5996130;23;20141;-48
2021/05/05 05:11:21;;;;;;;6.80;1.60;;;;;;;;;;5996073;23;20022;-51
2021/05/05 05:13:47;;;;;;;4.22;1.35;;;;;;;;;;6004134;23;20033;-50
2021/05/05 05:16:14;;;;;;;7.32;1.33;;;;;;;;;;6052425;23;20065;-52
2021/05/05 05:18:40;;;;;;;6.97;1.10;;;;;;;;;;6020997;23;20088;-50
2021/05/05 05:21:07;;;;;;;3.97;1.17;;;;;;;;;;6025926;23;20103;-51
2021/05/05 05:23:33;;;;;;;3.70;1.10;;;;;;;;;;6020861;23;20025;-52
2021/05/05 05:25:59;;;;;;;10.98;1.20;;;;;;;;;;6047959;23;20081;-48
2021/05/05 05:28:26;;;;;;;5.30;1.15;;;;;;;;;;6022096;23;20054;-51
2021/05/05 05:30:52;;;;;;;8.00;1.40;;;;;;;;;;6049338;23;20037;-52
2021/05/05 05:33:18;;;;;;;4.88;1.17;;;;;;;;;;6022952;23;20036;-48
2021/05/05 05:35:44;;;;;;;5.97;0.90;;;;;;;;;;6019118;23;20040;-49
2021/05/05 05:38:11;;;;;;;5.80;1.13;;;;;;;;;;6048933;23;20049;-50
2021/05/05 05:40:37;;;;;;;5.00;1.25;;;;;;;;;;6016187;23;20044;-54
2021/05/05 05:43:04;;;;;;;9.82;2.28;;;;;;;;;;6049012;23;20037;-49
2021/05/05 05:45:31;;;;;;;11.80;3.30;;;;;;;;;;6019899;23;20098;-50
2021/05/05 05:47:58;;;;;;;6.57;1.60;;;;;;;;;;6025582;23;20033;-51
2021/05/05 05:50:24;;;;;;;11.13;1.30;;;;;;;;;;6022722;23;20056;-50
2021/05/05 05:52:50;;;;;;;5.38;1.10;;;;;;;;;;6028022;23;20124;-52
2021/05/05 05:55:18;;;;;;;8.00;1.33;;;;;;;;;;6044991;23;20036;-49
2021/05/05 05:57:49;;;;;;;3.88;0.88;;;;;;;;;;6022341;23;20033;-50
2021/05/05 06:00:16;;;;;;;5.00;0.85;;;;;;;;;;6020484;23;20037;-51
2021/05/05 06:02:42;;;;;;;3.50;1.67;;;;;;;;;;6022654;23;20111;-54
2021/05/05 06:05:11;;;;;;;5.05;0.93;;;;;;;;;;6019424;23;20048;-60
2021/05/05 06:07:38;;;;;;;10.75;2.55;;;;;;;;;;6024811;23;20036;-49
2021/05/05 06:10:04;;;;;;;12.98;2.33;;;;;;;;;;6045393;23;20285;-51
2021/05/05 06:12:31;;;;;;;7.57;1.00;;;;;;;;;;6014715;23;20025;-56
2021/05/05 06:14:58;;;;;;;5.90;1.00;;;;;;;;;;6024292;23;20049;-55
2021/05/05 06:17:24;;;;;;;7.32;1.20;;;;;;;;;;6073363;23;20037;-51
2021/05/05 06:19:50;;;;;;;8.90;1.23;;;;;;;;;;6051397;23;20039;-55
2021/05/05 06:22:16;;;;;;;5.07;1.10;;;;;;;;;;6021899;23;20035;-54
2021/05/05 06:24:44;;;;;;;4.45;1.10;;;;;;;;;;6022499;23;20043;-56
2021/05/05 06:27:10;;;;;;;5.18;1.08;;;;;;;;;;6014471;23;20025;-55
2021/05/05 06:29:36;;;;;;;11.20;1.08;;;;;;;;;;6071204;23;20095;-49
2021/05/05 06:32:03;;;;;;;7.03;1.23;;;;;;;;;;6022438;23;20041;-52
2021/05/05 06:34:31;;;;;;;9.48;1.20;;;;;;;;;;6025158;23;20052;-52
2021/05/05 06:36:57;;;;;;;4.90;0.93;;;;;;;;;;6022419;23;20106;-51
2021/05/05 06:39:23;;;;;;;6.43;1.23;;;;;;;;;;6025930;23;20045;-47
2021/05/05 06:41:52;;;;;;;6.82;1.00;;;;;;;;;;6010718;23;20041;-53
2021/05/05 06:44:21;;;;;;;7.30;0.93;;;;;;;;;;6022445;23;20112;-46
2021/05/05 06:46:49;;;;;;;;;;;;;;;;;;5996112;23;20021;-52
2021/05/05 06:49:15;;;;;;;4.13;0.80;;;;;;;;;;5995464;23;19923;-50
2021/05/05 06:51:41;;;;;;;2.65;0.85;;;;;;;;;;6020728;23;20050;-53
2021/05/05 06:54:08;;;;;;;8.73;1.38;;;;;;;;;;6007658;23;20052;-48
2021/05/05 06:56:34;;;;;;;7.78;1.30;;;;;;;;;;6024347;23;20114;-53
2021/05/05 06:59:00;;;;;;;7.18;1.38;;;;;;;;;;6006517;23;20115;-48
2021/05/05 07:01:26;;;;;;;6.82;1.10;;;;;;;;;;6022572;23;20045;-47
2021/05/05 07:03:52;;;;;;;4.20;0.90;;;;;;;;;;6018610;23;20049;-51
2021/05/05 07:06:20;;;;;;;3.17;0.85;;;;;;;;;;5996288;23;20040;-49
2021/05/05 07:08:46;;;;;;;2.97;1.00;;;;;;;;;;6001495;23;20036;-48
2021/05/05 07:11:12;;;;;;;7.43;1.10;;;;;;;;;;6024245;23;20025;-51
2021/05/05 07:13:38;;;;;;;2.10;0.90;;;;;;;;;;6029247;23;20069;-50
2021/05/05 07:16:04;;;;;;;7.38;1.13;;;;;;;;;;6022432;23;20046;-47
2021/05/05 07:18:30;;;;;;;3.20;0.90;;;;;;;;;;6007917;23;20036;-47
2021/05/05 07:20:58;;;;;;;4.15;1.00;;;;;;;;;;6028128;23;20033;-52
2021/05/05 07:23:24;;;;;;;5.45;1.20;;;;;;;;;;6048085;23;20032;-51
2021/05/05 07:25:53;;;;;;;4.03;1.25;;;;;;;;;;6009408;23;20033;-51
2021/05/05 07:28:19;;;;;;;5.38;1.10;;;;;;;;;;5995532;23;20044;-54
2021/05/05 07:30:45;;;;;;;5.85;1.30;;;;;;;;;;5997161;23;20029;-50
2021/05/05 07:33:13;;;;;;;6.03;1.63;;;;;;;;;;6017410;23;20049;-56
2021/05/05 07:35:39;;;;;;;9.02;1.65;;;;;;;;;;5999703;23;20073;-53
2021/05/05 07:38:22;;;;;;;8.77;1.30;;;;;;;;;;6024414;23;20029;-58
2021/05/05 07:46:25;;;;;;;11.45;1.50;;;;;;;;;;6019770;23;20044;-54
2021/05/05 07:48:53;;;;;;;9.80;1.23;;;;;;;;;;5999549;23;20033;-54
2021/05/05 07:51:19;;;;;;;11.65;2.05;;;;;;;;;;5999464;23;20033;-54
2021/05/05 07:53:45;;;;;;;6.22;1.17;;;;;;;;;;6022352;23;20037;-57
2021/05/05 07:56:14;;;;;;;6.53;1.92;;;;;;;;;;6032935;23;20056;-55
2021/05/05 07:58:42;;;;;;;;;;;;;;;;;;6002683;23;20081;-52
2021/05/05 08:01:08;;;;;;;13.65;1.85;;;;;;;;;;6011494;23;19933;-51
2021/05/05 08:03:34;;;;;;;8.07;1.15;;;;;;;;;;5995391;23;20037;-52
2021/05/05 08:06:01;;;;;;;5.38;1.10;;;;;;;;;;5995113;23;20037;-52
2021/05/05 08:08:27;;;;;;;6.28;0.98;;;;;;;;;;5996553;23;20037;-55
2021/05/05 08:10:52;;;;;;;9.70;1.15;;;;;;;;;;6008919;23;20032;-55
2021/05/05 08:13:19;;;;;;;7.47;0.90;;;;;;;;;;6050492;23;20033;-52
2021/05/05 08:15:46;;;;;;;2.92;0.77;;;;;;;;;;6021790;23;20033;-57
2021/05/05 08:18:12;;;;;;;8.27;1.08;;;;;;;;;;6025336;23;20151;-53
2021/05/05 08:20:39;;;;;;;2.42;0.93;;;;;;;;;;6021310;23;20077;-58
2021/05/05 08:23:05;;;;;;;9.80;1.00;;;;;;;;;;6021598;23;20053;-53
2021/05/05 08:25:34;;;;;;;4.82;0.85;;;;;;;;;;6022177;23;20048;-53
2021/05/05 08:28:00;;;;;;;1.80;0.98;;;;;;;;;;6024478;23;20029;-57
2021/05/05 08:30:27;;;;;;;1.85;0.57;;;;;;;;;;6019848;23;20052;-56
2021/05/05 08:32:53;;;;;;;9.15;1.13;;;;;;;;;;6073296;23;20033;-53
2021/05/05 08:35:20;;;;;;;6.88;1.83;;;;;;;;;;6024580;23;20045;-58
2021/05/05 08:37:47;;;;;;;5.03;1.30;;;;;;;;;;5994906;23;20052;-51
2021/05/05 08:40:13;;;;;;;7.18;1.13;;;;;;;;;;5997142;23;20044;-53
2021/05/05 08:42:40;;;;;;;4.65;0.98;;;;;;;;;;6017548;23;20033;-51
2021/05/05 08:45:10;;;;;;;3.60;1.00;;;;;;;;;;6026173;23;20029;-51
2021/05/05 08:47:37;;;;;;;4.97;1.20;;;;;;;;;;6020907;23;20057;-54
2021/05/05 08:50:09;;;;;;;7.75;1.17;;;;;;;;;;6076779;23;20025;-47
2021/05/05 08:52:35;;;;;;;5.60;1.10;;;;;;;;;;6005072;23;20052;-54
2021/05/05 08:55:03;;;;;;;7.40;1.40;;;;;;;;;;6020864;23;20041;-59
2021/05/05 08:57:29;;;;;;;6.93;1.20;;;;;;;;;;6008870;23;20033;-59
2021/05/05 08:59:55;;;;;;;4.03;0.80;;;;;;;;;;5996240;23;20096;-52
2021/05/05 09:02:21;;;;;;;4.57;1.05;;;;;;;;;;5994979;23;20061;-54
2021/05/05 09:04:58;;;;;;;7.22;1.45;;;;;;;;;;5997408;23;20029;-57
2021/05/05 09:07:31;;;;;;;8.13;1.30;;;;;;;;;;6029342;23;20029;-59
2021/05/05 09:10:02;;;;;;;9.10;1.02;;;;;;;;;;6025659;23;20043;-59
2021/05/05 09:12:28;;;;;;;7.22;1.38;;;;;;;;;;6016744;23;20264;-59
2021/05/05 09:14:59;;;;;;;4.30;1.02;;;;;;;;;;5997789;23;20025;-59
2021/05/05 09:17:29;;;;;;;6.60;1.45;;;;;;;;;;6023388;23;20065;-57
2021/05/05 09:20:19;;;;;;;4.43;0.88;;;;;;;;;;6025528;23;20025;-57
2021/05/05 09:22:47;;;;;;;8.57;1.30;;;;;;;;;;6019390;23;20040;-58
2021/05/05 09:25:16;;;;;;;6.00;1.33;;;;;;;;;;6023476;23;20052;-54
2021/05/05 09:27:42;;;;;;;9.13;1.27;;;;;;;;;;6021200;23;20037;-57
2021/05/05 09:30:18;;;;;;;5.03;1.05;;;;;;;;;;5998199;23;20033;-59
2021/05/05 09:32:48;;;;;;;9.27;1.40;;;;;;;;;;6001581;23;20041;-56
2021/05/05 09:35:15;;;;;;;8.18;1.30;;;;;;;;;;5996548;23;20102;-56
2021/05/05 09:37:41;;;;;;;6.35;1.20;;;;;;;;;;6049344;23;20036;-59
2021/05/05 09:40:09;;;;;;;4.80;0.90;;;;;;;;;;6019421;23;20043;-56
2021/05/05 09:42:35;;;;;;;7.65;0.73;;;;;;;;;;6023903;23;20095;-58
2021/05/05 09:45:05;;;;;;;2.85;0.75;;;;;;;;;;6021882;23;20029;-56
2021/05/05 09:47:45;;;;;;;1.40;0.60;;;;;;;;;;6011442;23;20041;-56
2021/05/05 09:50:23;;;;;;;4.35;0.82;;;;;;;;;;6021651;23;20037;-56
2021/05/05 09:52:50;;;;;;;2.38;0.63;;;;;;;;;;6025170;23;20057;-56
2021/05/05 09:55:18;;;;;;;3.58;1.00;;;;;;;;;;5998917;23;20037;-58
2021/05/05 09:57:44;;;;;;;4.40;1.05;;;;;;;;;;5997612;23;20041;-59
2021/05/05 10:00:11;;;;;;;6.25;0.90;;;;;;;;;;6011170;23;20043;-58
2021/05/05 10:02:41;;;;;;;5.35;1.13;;;;;;;;;;6024166;23;20033;-57
2021/05/05 10:05:08;;;;;;;10.05;1.00;;;;;;;;;;6007400;23;20034;-56
2021/05/05 10:07:50;;;;;;;8.55;1.00;;;;;;;;;;5997957;23;20034;-54
2021/05/05 10:10:16;;;;;;;5.47;1.00;;;;;;;;;;5993035;23;20045;-59
2021/05/05 10:12:42;;;;;;;5.30;0.77;;;;;;;;;;6023298;23;20053;-58
2021/05/05 10:15:09;;;;;;;3.80;0.85;;;;;;;;;;5995393;23;20025;-56
2021/05/05 10:17:35;;;;;;;4.05;1.00;;;;;;;;;;5998986;23;20057;-52
2021/05/05 10:20:03;;;;;;;5.75;1.35;;;;;;;;;;6002510;23;20021;-48
2021/05/05 10:22:31;;;;;;;8.77;1.17;;;;;;;;;;6026195;23;20056;-55
2021/05/05 10:24:58;;;;;;;7.15;0.93;;;;;;;;;;6024322;23;20128;-59
2021/05/05 10:27:24;;;;;;;11.93;1.48;;;;;;;;;;6024726;23;20033;-52
2021/05/05 10:29:51;;;;;;;5.60;1.00;;;;;;;;;;6025294;23;20037;-56
2021/05/05 10:32:20;;;;;;;8.05;1.08;;;;;;;;;;6026720;23;20048;-57
2021/05/05 10:34:49;;;;;;;10.75;1.35;;;;;;;;;;6053438;23;20043;-57
2021/05/05 10:37:15;;;;;;;;;;;;;;;;;;6028926;23;20057;-55
2021/05/05 10:39:41;;;;;;;8.38;1.30;;;;;;;;;;5996231;23;19932;-58
2021/05/05 10:42:16;;;;;;;6.47;1.15;;;;;;;;;;5996053;23;20049;-57
2021/05/05 10:44:44;;;;;;;4.75;0.93;;;;;;;;;;5997654;23;20026;-59
2021/05/05 10:47:14;;;;;;;13.18;1.45;;;;;;;;;;5995880;23;20037;-58
2021/05/05 10:50:14;;;;;;;9.68;1.23;;;;;;;;;;6009514;23;20033;-58
2021/05/05 10:52:59;;;;;;;7.18;1.20;;;;;;;;;;6044173;23;20040;-57
2021/05/05 10:55:31;;;;;;;12.15;1.60;;;;;;;;;;5998558;23;20045;-57
2021/05/05 10:58:04;;;;;;;6.53;1.02;;;;;;;;;;6044592;23;20117;-60
2021/05/05 11:00:42;;;;;;;7.75;1.35;;;;;;;;;;6052046;23;20043;-57
2021/05/05 11:03:08;;;;;;;16.10;1.92;;;;;;;;;;6024383;23;20107;-57
2021/05/05 11:05:37;;;;;;;13.80;1.52;;;;;;;;;;5998871;23;20033;-57
2021/05/05 11:08:05;;;;;;;10.65;1.52;;;;;;;;;;6019057;23;20044;-55
2021/05/05 11:10:51;;;;;;;5.75;1.10;;;;;;;;;;5994907;23;20037;-56
2021/05/05 11:13:35;;;;;;;11.25;1.60;;;;;;;;;;6019481;23;20065;-57
2021/05/05 11:16:02;;;;;;;6.57;1.08;;;;;;;;;;5985552;23;20041;-54
2021/05/05 11:18:45;;;;;;;9.07;1.38;;;;;;;;;;6013857;23;20040;-54
2021/05/05 11:21:26;;;;;;;11.48;1.90;;;;;;;;;;6026770;23;20048;-57
2021/05/05 11:23:52;;;;;;;11.15;1.27;;;;;;;;;;6007917;23;20045;-53
2021/05/05 11:26:21;;;;;;;17.30;1.55;;;;;;;;;;6038264;23;20029;-59
2021/05/05 11:28:53;;;;;;;7.47;1.52;;;;;;;;;;6018530;23;20033;-56
2021/05/05 11:31:20;;;;;;;16.58;2.90;;;;;;;;;;6048757;23;20036;-59
2021/05/05 11:33:59;;;;;;;14.38;1.60;;;;;;;;;;6044965;23;20025;-57
2021/05/05 11:36:25;;;;;;;8.15;1.33;;;;;;;;;;6006919;23;20025;-54
2021/05/05 11:38:59;;;;;;;13.45;2.65;;;;;;;;;;6008719;23;20107;-54
2021/05/05 11:41:29;;;;;;;7.65;1.33;;;;;;;;;;6025587;23;20037;-52
2021/05/05 11:43:55;;;;;;;8.15;1.50;;;;;;;;;;6021929;23;20040;-56
2021/05/05 11:46:23;;;;;;;7.15;1.58;;;;;;;;;;6025240;23;20111;-55
2021/05/05 11:48:49;;;;;;;13.60;2.00;;;;;;;;;;6046957;23;20029;-58
2021/05/05 11:51:16;;;;;;;10.40;1.25;;;;;;;;;;6014730;23;20032;-54
2021/05/05 11:53:42;;;;;;;10.40;1.60;;;;;;;;;;6018690;23;20037;-53
2021/05/05 11:56:15;;;;;;;5.80;1.30;;;;;;;;;;5998687;23;20053;-52
2021/05/05 11:58:41;;;;;;;12.00;2.00;;;;;;;;;;5995739;23;20037;-53
2021/05/05 12:01:07;;;;;;;8.45;1.60;;;;;;;;;;5994760;23;20032;-54
2021/05/05 12:03:36;;;;;;;13.07;1.45;;;;;;;;;;6006848;23;20059;-57
2021/05/05 12:06:04;;;;;;;12.20;1.58;;;;;;;;;;5995057;23;20050;-57
2021/05/05 12:08:30;;;;;;;11.60;1.33;;;;;;;;;;6021191;23;20037;-58
2021/05/05 12:10:57;;;;;;;9.30;1.63;;;;;;;;;;6018443;23;20032;-56
2021/05/05 12:13:24;;;;;;;12.27;1.45;;;;;;;;;;6025321;23;20152;-57
2021/05/05 12:15:58;;;;;;;8.70;1.40;;;;;;;;;;6018665;23;20039;-53
2021/05/05 12:18:29;;;;;;;11.40;1.85;;;;;;;;;;6049206;23;20033;-53
2021/05/05 12:21:02;;;;;;;11.35;1.52;;;;;;;;;;6026765;23;20065;-58
2021/05/05 12:23:34;;;;;;;12.07;1.60;;;;;;;;;;5996132;23;20044;-59
2021/05/05 12:26:00;;;;;;;7.65;1.40;;;;;;;;;;6007431;23;20048;-55
2021/05/05 12:28:26;;;;;;;5.80;0.98;;;;;;;;;;6026150;23;20061;-60
2021/05/05 12:30:53;;;;;;;11.65;1.40;;;;;;;;;;6047070;23;20039;-54
2021/05/05 12:33:21;;;;;;;7.25;1.17;;;;;;;;;;6050975;23;20056;-59
2021/05/05 12:35:47;;;;;;;9.70;1.35;;;;;;;;;;6012374;23;20037;-57
2021/05/05 12:38:15;;;;;;;10.88;1.70;;;;;;;;;;5995905;23;20096;-54
2021/05/05 12:40:42;;;;;;;6.88;1.48;;;;;;;;;;5995236;23;20025;-58
2021/05/05 12:43:19;;;;;;;10.38;1.63;;;;;;;;;;5997066;23;20029;-60
2021/05/05 12:45:46;;;;;;;12.43;1.63;;;;;;;;;;5996928;23;20037;-59
2021/05/05 12:48:12;;;;;;;7.65;1.38;;;;;;;;;;6023019;23;20049;-58
2021/05/05 12:50:39;;;;;;;7.20;1.13;;;;;;;;;;5996178;23;20033;-55
2021/05/05 12:53:05;;;;;;;4.32;1.30;;;;;;;;;;5998359;23;20033;-59
2021/05/05 12:55:34;;;;;;;14.82;1.60;;;;;;;;;;6024874;23;20029;-58
2021/05/05 12:58:01;;;;;;;5.80;0.90;;;;;;;;;;5995964;23;20033;-56
2021/05/05 13:00:27;;;;;;;5.65;1.35;;;;;;;;;;5996646;23;20026;-57
2021/05/05 13:03:04;;;;;;;7.53;0.98;;;;;;;;;;6018850;23;20118;-57
2021/05/05 13:05:30;;;;;;;7.85;1.30;;;;;;;;;;6021407;23;20118;-60
2021/05/05 13:08:06;;;;;;;8.48;1.05;;;;;;;;;;6001914;23;20033;-56
2021/05/05 13:10:41;;;;;;;7.55;1.35;;;;;;;;;;5995747;23;20033;-60
2021/05/05 13:13:10;;;;;;;6.93;1.25;;;;;;;;;;6015665;23;20119;-56
2021/05/05 13:15:40;;;;;;;;;;;;;;;;;;6052658;23;20036;-61
2021/05/05 13:18:23;;;;;;;7.00;1.10;;;;;;;;;;6029556;23;19924;-60
2021/05/05 13:31:54;;;;;;;5.32;1.30;;;;;;;;;;6025558;23;20047;-56
2021/05/05 13:34:28;;;;;;;7.65;1.40;;;;;;;;;;6018648;23;20033;-55
2021/05/05 13:36:56;;;;;;;8.23;1.20;;;;;;;;;;6022782;23;20041;-54
2021/05/05 13:39:23;;;;;;;10.45;1.30;;;;;;;;;;6042022;23;20029;-59
2021/05/05 13:41:51;;;;;;;9.10;1.30;;;;;;;;;;6051690;23;20025;-60
2021/05/05 13:44:39;;;;;;;10.65;1.30;;;;;;;;;;6025748;23;20039;-58
2021/05/05 13:47:19;;;;;;;13.75;1.60;;;;;;;;;;5996822;23;20033;-56
2021/05/05 13:49:47;;;;;;;10.35;2.00;;;;;;;;;;5992959;23;20034;-59
2021/05/05 13:52:13;;;;;;;11.45;1.40;;;;;;;;;;5997845;23;20034;-58
2021/05/05 13:54:40;;;;;;;8.77;1.55;;;;;;;;;;6013309;23;20032;-54
2021/05/05 13:57:07;;;;;;;11.30;1.75;;;;;;;;;;6025399;23;20049;-57
2021/05/05 13:59:37;;;;;;;6.77;1.33;;;;;;;;;;6022326;23;20033;-60
2021/05/05 14:02:03;;;;;;;11.90;1.95;;;;;;;;;;6050608;23;20032;-61
2021/05/05 14:04:30;;;;;;;13.05;1.73;;;;;;;;;;6007576;23;20044;-60
2021/05/05 14:06:56;;;;;;;5.78;1.65;;;;;;;;;;6020641;23;20033;-59
2021/05/05 14:09:24;;;;;;;6.22;1.30;;;;;;;;;;5991897;23;20048;-59
2021/05/05 14:11:50;;;;;;;7.15;1.40;;;;;;;;;;5994296;23;20030;-58
2021/05/05 14:14:18;;;;;;;6.03;1.17;;;;;;;;;;5967377;23;20041;-60
2021/05/05 14:16:45;;;;;;;6.60;1.23;;;;;;;;;;5969290;23;20037;-61
2021/05/05 14:19:11;;;;;;;5.78;1.20;;;;;;;;;;5967447;23;20048;-60
2021/05/05 14:21:37;;;;;;;5.00;1.27;;;;;;;;;;6021967;23;20032;-57
2021/05/05 14:24:03;;;;;;;7.57;1.00;;;;;;;;;;6022340;23;20041;-61
2021/05/05 14:26:29;;;;;;;7.15;1.40;;;;;;;;;;5986681;23;20041;-56
2021/05/05 14:28:55;;;;;;;5.13;1.00;;;;;;;;;;5997706;23;20129;-60
2021/05/05 14:31:22;;;;;;;6.20;1.23;;;;;;;;;;5996368;23;20052;-58
2021/05/05 14:33:48;;;;;;;4.65;1.00;;;;;;;;;;5969997;23;20033;-62
2021/05/05 14:36:14;;;;;;;2.22;0.65;;;;;;;;;;5985687;23;20033;-61
2021/05/05 14:38:42;;;;;;;3.13;0.90;;;;;;;;;;5997027;23;20089;-59
2021/05/05 14:41:11;;;;;;;7.25;1.13;;;;;;;;;;6018739;23;20037;-63
2021/05/05 14:43:45;;;;;;;7.00;1.15;;;;;;;;;;5983773;23;20021;-58
2021/05/05 14:47:50;;;;;;;8.23;1.40;;;;;;;;;;5979840;23;20178;-62
2021/05/05 14:49:01;;;;;;;5.25;1.10;;;;;;;;;;5966650;23;20025;-57
2021/05/05 14:51:27;;;;;;;6.10;0.90;;;;;;;;;;5965795;23;20022;-61
2021/05/05 14:53:56;;;;;;;6.10;1.10;;;;;;;;;;5967065;23;20037;-60
2021/05/05 14:56:22;;;;;;;6.82;1.10;;;;;;;;;;5967940;23;20064;-59
2021/05/05 14:58:52;;;;;;;9.07;1.05;;;;;;;;;;5993012;23;20041;-57
2021/05/05 15:01:27;;;;;;;4.47;1.00;;;;;;;;;;5966988;23;20026;-60
2021/05/05 15:03:58;;;;;;;8.97;1.43;;;;;;;;;;5994264;23;20034;-53